Beulah, New Mexico
Current Conditions -  °F | °C
As of 10:53 AM on Friday 24 Oct 2014 (Local Time) from KLVS Reporting Station
Clear Clear  
Wind Chill: 21°   Ceiling: Unl
Heat Index: 21°   Visibility: 10mi
Dew Point: -2°   Wind: 3mph
Humidity: 22%   Direction: 240°WSW
Pressure: 30.34"   Gusts: NA
Location:  35.7797°N, 105.164°W
Report Text: KLVS 241653Z AUTO 24003KT 10SM CLR 21/M02 A3034 RMK AO2 SLP185 T02061022
Loading
Personal Weather Stations






























Interactive Weather Map
Tropical Storm Tracking
New forecast layout! Learn more

10-Day Weather Forecast

Advertisements
Track Severe Weather on mobile